Flight Track Log - Related Links

Times and Time Zones

All times are in EDT time to prevent confusion due to time zone crossing. See the TCF6008 flight status page for this flight to view local times or setup timezone preferences in your user account.

Time Position Orientation Groundspeed Altitude Reporting Facility
EDT Latitude Longitude Course Direction KTS MPH feet Rate Location/Type
Wed 06:28:43 PM 42.9500 -87.8833 132° Southeast 146 168 1,700  Level KMKE
Wed 06:29:00 PM 42.9483 -87.8689 99° East 133 153 2,300 2,000 Climbing Chicago Center
Wed 06:30:01 PM 42.9092 -87.8964 207° Southwest 235 270 4,300 2,656 Climbing Chicago Center
Wed 06:31:02 PM 42.8664 -87.9681 231° Southwest 241 277 7,700 3,000 Climbing Chicago Center
Wed 06:32:00 PM 42.8737 -87.1109 180° South  Level Estimated
Wed 06:32:03 PM 42.8114 -88.0294 219° Southwest 256 295 10,400  Level Chicago Center
Wed 06:33:00 PM 42.8584 -86.9539 200° South  Level Estimated
Wed 06:33:05 PM 42.7300 -88.0206 175° South 292 336 13,700  Level Chicago Center
Wed 06:34:00 PM 42.8428 -86.7970 132° Southeast  Level Estimated
Wed 06:34:06 PM 42.6625 -87.9644 149° Southeast 311 358 16,000  Level Chicago Center
Wed 06:35:07 PM 42.6683 -87.8231 87° East 370 426 17,900 2,115 Climbing Chicago Center
Wed 06:36:08 PM 42.6864 -87.6800 80° East 383 441 20,300 2,115 Climbing Chicago Center
Wed 06:37:09 PM 42.7078 -87.5308 79° East 398 458 22,200 1,525 Climbing Chicago Center
Wed 06:38:10 PM 42.7294 -87.3611 80° East 428 493 23,400 1,475 Climbing Chicago Center
Wed 06:39:11 PM 42.7525 -87.1939 79° East 448 516 25,200 1,574 Climbing Chicago Center
Wed 06:40:12 PM 42.7756 -87.0247 79° East 454 522 26,600 1,426 Climbing Chicago Center
Wed 06:41:13 PM 42.7989 -86.8517 80° East 466 536 28,100 1,180 Climbing Chicago Center
Wed 06:42:14 PM 42.8206 -86.6786 80° East 465 535 29,000 443 Climbing Chicago Center
Wed 06:43:15 PM 42.8428 -86.5019 80° East 473 544 29,000  Level Chicago Center
Wed 06:44:17 PM 42.8689 -86.2933 80° East 471 542 29,000  Level Chicago Center
Wed 06:45:18 PM 42.8911 -86.1158 80° East 479 551 29,000  Level Chicago Center
Wed 06:46:19 PM 42.9108 -85.9414 81° East 480 552 29,000  Level Chicago Center
Wed 06:47:20 PM 42.9325 -85.7675 80° East 477 549 29,000  Level Chicago Center
Wed 06:48:21 PM 42.9536 -85.5917 81° East 476 548 29,000  Level Chicago Center
Wed 06:49:22 PM 42.9744 -85.4136 81° East 477 549 29,000  Level Chicago Center
Wed 06:50:23 PM 42.9961 -85.2350 81° East 479 551 29,000  Level Chicago Center
Wed 06:51:24 PM 43.0203 -85.0192 81° East 480 552 29,000  Level Chicago Center
Wed 06:52:25 PM 43.0414 -84.8414 81° East 477 549 29,000  Level Chicago Center
Wed 06:53:26 PM 43.0608 -84.6647 81° East 474 545 29,000  Level Chicago Center
Wed 06:54:27 PM 43.0797 -84.4875 82° East 473 544 29,000  Level Chicago Center
Wed 06:55:28 PM 43.0997 -84.3094 81° East 473 544 29,000  Level Chicago Center
Wed 06:56:29 PM 43.1186 -84.1314 82° East 474 545 29,000  Level Chicago Center
Wed 06:57:30 PM 43.1225 -83.9514 88° East 475 547 29,000  Level Chicago Center
Wed 06:58:31 PM 43.1197 -83.7708 91° East 476 548 29,000  Level Chicago Center
Wed 06:59:44 PM 43.1000 -83.5333 96° East 480 552 29,000  Level Toronto Center
Wed 07:00:44 PM 43.1000 -83.3333 90° East 470 541 29,000  Level Toronto Center
Wed 07:01:39 PM 43.1081 -83.1967 85° East 475 547 29,000  Level Cleveland Center
Wed 07:02:39 PM 43.1036 -83.0172 92° East 470 541 29,000  Level Cleveland Center
Wed 07:03:39 PM 43.1008 -82.8381 91° East 465 535 29,000  Level Cleveland Center
Wed 07:04:39 PM 43.0958 -82.6614 92° East 465 535 29,000  Level Cleveland Center
Wed 07:05:39 PM 43.0906 -82.4850 92° East 460 529 29,000  Level Cleveland Center
Wed 07:06:39 PM 43.0869 -82.3117 92° East 460 529 29,000  Level Cleveland Center
Wed 07:07:44 PM 43.0667 -82.1000 97° East 460 529 29,000  Level Toronto Center
Wed 07:08:44 PM 43.0500 -81.9333 98° East 460 529 29,000  Level Toronto Center
Wed 07:09:44 PM 43.0667 -81.7500 83° East 460 529 29,000  Level Toronto Center
Wed 07:10:44 PM 43.0500 -81.5667 97° East 460 529 29,000  Level Toronto Center
Wed 07:11:44 PM 43.0500 -81.3833 90° East 460 529 29,000  Level Toronto Center
Wed 07:12:44 PM 43.0333 -81.2333 99° East 460 529 29,000  Level Toronto Center
Wed 07:13:44 PM 43.0333 -81.0500 90° East 470 541 29,000  Level Toronto Center
Wed 07:14:44 PM 43.0167 -80.8667 97° East 470 541 29,000  Level Toronto Center
Wed 07:15:44 PM 43.0333 -80.7000 82° East 470 541 29,000  Level Toronto Center
Wed 07:16:44 PM 43.0167 -80.5000 96° East 470 541 29,000  Level Toronto Center
Wed 07:17:44 PM 43.0167 -80.3667 90° East 470 541 29,000  Level Toronto Center
Wed 07:18:44 PM 43.0000 -80.1500 96° East 470 541 29,000  Level Toronto Center
Wed 07:19:44 PM 42.9833 -79.9667 97° East 460 529 29,000  Level Toronto Center
Wed 07:20:44 PM 42.9833 -79.8000 90° East 470 541 29,000  Level Toronto Center
Wed 07:21:44 PM 42.9667 -79.6333 98° East 470 541 29,000  Level Toronto Center
Wed 07:22:44 PM 42.9667 -79.4500 90° East 470 541 29,000  Level Toronto Center
Wed 07:23:44 PM 42.9500 -79.2667 97° East 470 541 29,000  Level Toronto Center
Wed 07:24:44 PM 42.9500 -79.0833 90° East 470 541 29,000  Level Toronto Center
Wed 07:25:44 PM 42.9333 -78.9333 99° East 470 541 29,000  Level Toronto Center
Wed 07:26:44 PM 42.9333 -78.7500 90° East 470 541 29,000  Level Toronto Center
Wed 07:27:15 PM 42.9325 -78.6919 91° East 461 531 29,000  Level Cleveland Center
Wed 07:28:14 PM 42.9169 -78.5164 97° East 461 531 29,000  Level Cleveland Center
Wed 07:29:14 PM 42.8969 -78.3386 99° East 461 531 29,000  Level Cleveland Center
Wed 07:30:15 PM 42.8789 -78.1608 98° East 461 531 29,000  Level Cleveland Center
Wed 07:31:15 PM 42.8625 -77.9858 97° East 466 536 29,000  Level Cleveland Center
Wed 07:33:16 PM 42.8267 -77.6617 98° East 465 535 29,000  Level Boston Center
Wed 07:33:44 PM 42.8000 -77.5000 103° East 470 541 29,000  Level Toronto Center
Wed 07:34:44 PM 42.7667 -77.3333 105° East 470 541 29,000  Level Toronto Center
Wed 07:35:14 PM 42.7708 -77.2747 84° East 471 542 29,000  Level Boston Center
Wed 07:36:15 PM 42.7447 -77.1003 101° East 471 542 29,000  Level Boston Center
Wed 07:37:15 PM 42.7225 -76.9231 100° East 471 542 29,000  Level Boston Center
Wed 07:38:16 PM 42.6981 -76.7489 101° East 471 542 29,000 -203 Level Boston Center
Wed 07:39:13 PM 42.6714 -76.5719 102° East 471 542 28,600 -559 Descending Boston Center
Wed 07:40:14 PM 42.6439 -76.4008 102° East 471 542 27,900 -750 Descending Boston Center
Wed 07:41:13 PM 42.6208 -76.2269 100° East 471 542 27,100 -750 Descending Boston Center
Wed 07:42:14 PM 42.5928 -76.0589 103° East 471 542 26,400 -545 Descending Boston Center
Wed 07:43:14 PM 42.5689 -75.8911 101° East 459 528 26,000 -198 Descending Boston Center
Wed 07:44:15 PM 42.5425 -75.7261 102° East 453 521 26,000  Level Boston Center
Wed 07:45:15 PM 42.5158 -75.5614 102° East 453 521 26,000  Level Boston Center
Wed 07:46:15 PM 42.4892 -75.3939 102° East 453 521 26,000  Level Boston Center
Wed 07:47:13 PM 42.4600 -75.2264 103° East 453 521 26,000  Level Boston Center
Wed 07:48:13 PM 42.4053 -75.0747 116° Southeast 453 521 26,000  Level Boston Center
Wed 07:49:14 PM 42.3483 -74.9236 117° Southeast 448 516 26,000 -246 Level Boston Center
Wed 07:50:15 PM 42.2911 -74.7697 117° Southeast 448 516 25,500 -1,282 Descending Boston Center
Wed 07:51:25 PM 42.2378 -74.6219 116° Southeast 453 521 23,200 -2,290 Descending Boston Center
Wed 07:52:26 PM 42.1781 -74.4656 117° Southeast 447 514 20,500 -2,410 Descending Boston Center
Wed 07:53:27 PM 42.1244 -74.3183 116° Southeast 410 472 18,300 -1,240 Descending Boston Center
Wed 07:54:27 PM 42.0678 -74.2131 126° Southeast 389 448 18,000 -458 Descending Boston Center
Wed 07:55:25 PM 41.9542 -74.1431 155° Southeast 390 449 17,400 -504 Descending Boston Center
Wed 07:56:26 PM 41.8444 -74.0897 160° South 425 489 17,000 -397 Descending Boston Center
Wed 07:57:26 PM 41.7450 -74.0372 158° South 425 489 16,600 -1,250 Descending Boston Center
Wed 07:58:26 PM 41.6292 -73.9786 159° South 420 483 14,500 -1,884 Descending Boston Center
Wed 07:59:27 PM 41.5403 -73.9350 160° South 398 458 12,800 -1,755 Descending Boston Center
Wed 08:00:12 PM 41.4500 -73.9000 164° South 330 380 11,400 -1,943 Descending New York TRACON
Wed 08:01:12 PM 41.3833 -73.8333 143° Southeast 321 369 9,400 -2,050 Descending New York TRACON
Wed 08:02:12 PM 41.3167 -73.7667 143° Southeast 308 354 7,300 -2,000 Descending New York TRACON
Wed 08:03:12 PM 41.2500 -73.7000 143° Southeast 286 329 5,400 -1,550 Descending New York TRACON
Wed 08:04:12 PM 41.2167 -73.6333 124° Southeast 275 316 4,200 -700 Descending New York TRACON
Wed 08:05:12 PM 41.2167 -73.5500 90° East 211 243 4,000 -100 Descending New York TRACON
Wed 08:06:12 PM 41.1833 -73.5667 201° Southwest 193 222 4,000  Level New York TRACON
Wed 08:07:12 PM 41.1333 -73.6000 207° Southwest 191 220 4,000  Level New York TRACON
Wed 08:08:12 PM 41.1000 -73.6500 229° Southwest 195 224 4,000  Level New York TRACON
Wed 08:09:12 PM 41.0500 -73.6833 207° Southwest 193 222 4,000  Level New York TRACON
Wed 08:10:12 PM 41.0000 -73.7000 194° South 194 223 4,000 -250 Level New York TRACON
Wed 08:11:12 PM 40.9500 -73.7500 217° Southwest 197 227 3,500 -600 Descending New York TRACON
Wed 08:12:12 PM 40.9000 -73.7833 207° Southwest 189 217 2,800 -895 Descending New York TRACON
Wed 08:13:06 PM 40.8667 -73.8000 201° Southwest 180 207 1,800 -1,111 Descending New York TRACON

Login

Don't have an account? Register now (free) for customized features, flight alerts, and more!